sensor_id;sensor_type;location;lat;lon;timestamp;P1;durP1;ratioP1;P2;durP2;ratioP2
19782;SDS011;10051;40.294;-3.754;2022-12-18T00:00:28;23.75;;;12.23;;
19782;SDS011;10051;40.294;-3.754;2022-12-18T00:02:55;31.83;;;12.02;;
19782;SDS011;10051;40.294;-3.754;2022-12-18T00:05:21;30.58;;;11.77;;
19782;SDS011;10051;40.294;-3.754;2022-12-18T00:07:46;32.83;;;11.00;;
19782;SDS011;10051;40.294;-3.754;2022-12-18T00:10:12;19.30;;;11.32;;
19782;SDS011;10051;40.294;-3.754;2022-12-18T00:12:37;58.90;;;11.32;;
19782;SDS011;10051;40.294;-3.754;2022-12-18T00:15:03;49.17;;;11.20;;
19782;SDS011;10051;40.294;-3.754;2022-12-18T00:17:29;29.52;;;11.25;;
19782;SDS011;10051;40.294;-3.754;2022-12-18T00:19:57;32.10;;;10.80;;
19782;SDS011;10051;40.294;-3.754;2022-12-18T00:22:25;29.70;;;9.82;;
19782;SDS011;10051;40.294;-3.754;2022-12-18T00:24:51;27.40;;;10.13;;
19782;SDS011;10051;40.294;-3.754;2022-12-18T00:27:16;18.65;;;9.88;;
19782;SDS011;10051;40.294;-3.754;2022-12-18T00:29:42;22.13;;;10.40;;
19782;SDS011;10051;40.294;-3.754;2022-12-18T00:32:08;19.13;;;9.93;;
19782;SDS011;10051;40.294;-3.754;2022-12-18T00:34:33;34.13;;;10.10;;
19782;SDS011;10051;40.294;-3.754;2022-12-18T00:37:02;16.85;;;10.45;;
19782;SDS011;10051;40.294;-3.754;2022-12-18T00:39:27;22.08;;;9.95;;
19782;SDS011;10051;40.294;-3.754;2022-12-18T00:41:53;15.80;;;9.77;;
19782;SDS011;10051;40.294;-3.754;2022-12-18T00:44:37;31.52;;;10.00;;
19782;SDS011;10051;40.294;-3.754;2022-12-18T00:47:11;21.95;;;9.50;;
19782;SDS011;10051;40.294;-3.754;2022-12-18T00:49:37;13.55;;;8.43;;
19782;SDS011;10051;40.294;-3.754;2022-12-18T00:52:03;16.42;;;8.15;;
19782;SDS011;10051;40.294;-3.754;2022-12-18T00:54:28;13.10;;;8.18;;
19782;SDS011;10051;40.294;-3.754;2022-12-18T00:56:54;14.50;;;8.25;;
19782;SDS011;10051;40.294;-3.754;2022-12-18T00:59:22;13.77;;;7.93;;
19782;SDS011;10051;40.294;-3.754;2022-12-18T01:01:47;13.13;;;7.68;;
19782;SDS011;10051;40.294;-3.754;2022-12-18T01:04:13;17.70;;;7.95;;
19782;SDS011;10051;40.294;-3.754;2022-12-18T01:06:38;22.80;;;7.68;;
19782;SDS011;10051;40.294;-3.754;2022-12-18T01:09:05;13.32;;;7.68;;
19782;SDS011;10051;40.294;-3.754;2022-12-18T01:11:31;16.42;;;7.70;;
19782;SDS011;10051;40.294;-3.754;2022-12-18T01:13:59;19.58;;;8.20;;
19782;SDS011;10051;40.294;-3.754;2022-12-18T01:16:25;19.88;;;8.27;;
19782;SDS011;10051;40.294;-3.754;2022-12-18T01:18:51;23.88;;;8.45;;
19782;SDS011;10051;40.294;-3.754;2022-12-18T01:21:19;23.90;;;8.60;;
19782;SDS011;10051;40.294;-3.754;2022-12-18T01:23:45;16.27;;;8.30;;
19782;SDS011;10051;40.294;-3.754;2022-12-18T01:26:12;14.85;;;8.10;;
19782;SDS011;10051;40.294;-3.754;2022-12-18T01:28:40;26.88;;;7.70;;
19782;SDS011;10051;40.294;-3.754;2022-12-18T01:31:10;18.13;;;6.80;;
19782;SDS011;10051;40.294;-3.754;2022-12-18T01:33:39;19.23;;;6.88;;
19782;SDS011;10051;40.294;-3.754;2022-12-18T01:36:05;16.25;;;6.60;;
19782;SDS011;10051;40.294;-3.754;2022-12-18T01:38:31;10.65;;;7.15;;
19782;SDS011;10051;40.294;-3.754;2022-12-18T01:40:57;27.65;;;7.32;;
19782;SDS011;10051;40.294;-3.754;2022-12-18T01:43:46;20.10;;;7.57;;
19782;SDS011;10051;40.294;-3.754;2022-12-18T01:46:10;15.38;;;8.48;;
19782;SDS011;10051;40.294;-3.754;2022-12-18T01:48:36;15.45;;;7.88;;
19782;SDS011;10051;40.294;-3.754;2022-12-18T01:51:03;17.60;;;8.05;;
19782;SDS011;10051;40.294;-3.754;2022-12-18T01:53:31;13.25;;;7.80;;
19782;SDS011;10051;40.294;-3.754;2022-12-18T01:55:57;12.55;;;7.38;;
19782;SDS011;10051;40.294;-3.754;2022-12-18T01:58:33;22.15;;;8.75;;
19782;SDS011;10051;40.294;-3.754;2022-12-18T02:01:11;15.52;;;7.82;;
19782;SDS011;10051;40.294;-3.754;2022-12-18T02:03:39;20.20;;;8.40;;
19782;SDS011;10051;40.294;-3.754;2022-12-18T02:06:17;25.20;;;8.55;;
19782;SDS011;10051;40.294;-3.754;2022-12-18T02:11:48;13.68;;;7.70;;
19782;SDS011;10051;40.294;-3.754;2022-12-18T02:14:36;18.17;;;7.95;;
19782;SDS011;10051;40.294;-3.754;2022-12-18T02:17:18;12.88;;;7.75;;
19782;SDS011;10051;40.294;-3.754;2022-12-18T02:28:32;11.57;;;6.70;;
19782;SDS011;10051;40.294;-3.754;2022-12-18T02:31:02;14.85;;;6.97;;
19782;SDS011;10051;40.294;-3.754;2022-12-18T02:33:34;10.88;;;6.35;;
19782;SDS011;10051;40.294;-3.754;2022-12-18T02:36:02;11.90;;;7.15;;
19782;SDS011;10051;40.294;-3.754;2022-12-18T02:38:30;13.55;;;7.10;;
19782;SDS011;10051;40.294;-3.754;2022-12-18T02:40:58;16.85;;;7.20;;
19782;SDS011;10051;40.294;-3.754;2022-12-18T02:43:25;11.95;;;7.03;;
19782;SDS011;10051;40.294;-3.754;2022-12-18T02:45:58;19.17;;;7.50;;
19782;SDS011;10051;40.294;-3.754;2022-12-18T02:48:31;13.10;;;7.30;;
19782;SDS011;10051;40.294;-3.754;2022-12-18T02:54:05;15.05;;;7.97;;
19782;SDS011;10051;40.294;-3.754;2022-12-18T02:56:53;17.63;;;8.40;;
19782;SDS011;10051;40.294;-3.754;2022-12-18T02:59:24;15.07;;;7.95;;
19782;SDS011;10051;40.294;-3.754;2022-12-18T03:01:59;21.45;;;7.78;;
19782;SDS011;10051;40.294;-3.754;2022-12-18T03:09:53;15.30;;;7.38;;
19782;SDS011;10051;40.294;-3.754;2022-12-18T03:12:43;11.88;;;7.50;;
19782;SDS011;10051;40.294;-3.754;2022-12-18T03:15:14;13.00;;;7.55;;
19782;SDS011;10051;40.294;-3.754;2022-12-18T03:17:52;12.80;;;7.10;;
19782;SDS011;10051;40.294;-3.754;2022-12-18T03:20:23;15.55;;;7.10;;
19782;SDS011;10051;40.294;-3.754;2022-12-18T03:22:53;11.35;;;6.88;;
19782;SDS011;10051;40.294;-3.754;2022-12-18T03:25:25;10.93;;;6.47;;
19782;SDS011;10051;40.294;-3.754;2022-12-18T03:27:55;13.68;;;6.80;;
19782;SDS011;10051;40.294;-3.754;2022-12-18T03:30:24;11.38;;;6.70;;
19782;SDS011;10051;40.294;-3.754;2022-12-18T03:32:56;12.18;;;6.97;;
19782;SDS011;10051;40.294;-3.754;2022-12-18T03:35:31;11.60;;;7.10;;
19782;SDS011;10051;40.294;-3.754;2022-12-18T03:38:02;11.32;;;6.95;;
19782;SDS011;10051;40.294;-3.754;2022-12-18T03:40:35;11.20;;;7.07;;
19782;SDS011;10051;40.294;-3.754;2022-12-18T03:43:09;13.30;;;7.10;;
19782;SDS011;10051;40.294;-3.754;2022-12-18T03:45:46;10.70;;;6.97;;
19782;SDS011;10051;40.294;-3.754;2022-12-18T03:48:40;9.95;;;6.43;;
19782;SDS011;10051;40.294;-3.754;2022-12-18T03:54:16;9.10;;;5.88;;
19782;SDS011;10051;40.294;-3.754;2022-12-18T03:56:48;12.55;;;6.20;;
19782;SDS011;10051;40.294;-3.754;2022-12-18T03:59:18;9.65;;;6.40;;
19782;SDS011;10051;40.294;-3.754;2022-12-18T04:01:46;23.20;;;7.13;;
19782;SDS011;10051;40.294;-3.754;2022-12-18T04:04:14;10.63;;;6.60;;
19782;SDS011;10051;40.294;-3.754;2022-12-18T04:06:43;9.23;;;5.97;;
19782;SDS011;10051;40.294;-3.754;2022-12-18T04:09:12;9.25;;;6.20;;
19782;SDS011;10051;40.294;-3.754;2022-12-18T04:11:39;8.63;;;5.78;;
19782;SDS011;10051;40.294;-3.754;2022-12-18T04:14:07;9.90;;;6.40;;
19782;SDS011;10051;40.294;-3.754;2022-12-18T04:16:32;10.43;;;6.28;;
19782;SDS011;10051;40.294;-3.754;2022-12-18T04:19:01;9.93;;;6.10;;
19782;SDS011;10051;40.294;-3.754;2022-12-18T04:21:27;9.85;;;6.40;;
19782;SDS011;10051;40.294;-3.754;2022-12-18T04:23:53;10.77;;;6.88;;
19782;SDS011;10051;40.294;-3.754;2022-12-18T04:26:18;10.13;;;6.38;;
19782;SDS011;10051;40.294;-3.754;2022-12-18T04:28:44;15.82;;;6.70;;
19782;SDS011;10051;40.294;-3.754;2022-12-18T04:31:10;10.85;;;7.03;;
19782;SDS011;10051;40.294;-3.754;2022-12-18T04:33:36;15.18;;;6.80;;
19782;SDS011;10051;40.294;-3.754;2022-12-18T04:36:02;12.27;;;7.45;;
19782;SDS011;10051;40.294;-3.754;2022-12-18T04:38:27;12.70;;;7.43;;
19782;SDS011;10051;40.294;-3.754;2022-12-18T04:40:53;15.18;;;7.03;;
19782;SDS011;10051;40.294;-3.754;2022-12-18T04:43:19;12.88;;;7.30;;
19782;SDS011;10051;40.294;-3.754;2022-12-18T04:45:45;10.80;;;6.22;;
19782;SDS011;10051;40.294;-3.754;2022-12-18T04:48:10;11.23;;;6.80;;
19782;SDS011;10051;40.294;-3.754;2022-12-18T04:50:39;10.38;;;5.97;;
19782;SDS011;10051;40.294;-3.754;2022-12-18T04:53:04;15.15;;;6.72;;
19782;SDS011;10051;40.294;-3.754;2022-12-18T04:55:32;11.95;;;6.78;;
19782;SDS011;10051;40.294;-3.754;2022-12-18T04:57:58;13.00;;;6.82;;
19782;SDS011;10051;40.294;-3.754;2022-12-18T05:00:24;13.32;;;6.53;;
19782;SDS011;10051;40.294;-3.754;2022-12-18T05:02:49;12.07;;;6.80;;
19782;SDS011;10051;40.294;-3.754;2022-12-18T05:05:15;14.93;;;7.00;;
19782;SDS011;10051;40.294;-3.754;2022-12-18T05:07:41;23.05;;;7.20;;
19782;SDS011;10051;40.294;-3.754;2022-12-18T05:10:07;12.90;;;7.03;;
19782;SDS011;10051;40.294;-3.754;2022-12-18T05:12:33;15.30;;;7.30;;
19782;SDS011;10051;40.294;-3.754;2022-12-18T05:14:59;13.57;;;7.45;;
19782;SDS011;10051;40.294;-3.754;2022-12-18T05:17:27;14.90;;;7.60;;
19782;SDS011;10051;40.294;-3.754;2022-12-18T05:19:52;15.05;;;7.68;;
19782;SDS011;10051;40.294;-3.754;2022-12-18T05:22:18;17.52;;;7.78;;
19782;SDS011;10051;40.294;-3.754;2022-12-18T05:24:44;18.88;;;8.13;;
19782;SDS011;10051;40.294;-3.754;2022-12-18T05:27:09;16.48;;;7.88;;
19782;SDS011;10051;40.294;-3.754;2022-12-18T05:29:37;17.23;;;8.57;;
19782;SDS011;10051;40.294;-3.754;2022-12-18T05:32:03;19.65;;;9.45;;
19782;SDS011;10051;40.294;-3.754;2022-12-18T05:34:29;15.63;;;8.13;;
19782;SDS011;10051;40.294;-3.754;2022-12-18T05:36:54;17.45;;;8.30;;
19782;SDS011;10051;40.294;-3.754;2022-12-18T05:39:20;18.42;;;8.48;;
19782;SDS011;10051;40.294;-3.754;2022-12-18T05:41:46;17.65;;;8.27;;
19782;SDS011;10051;40.294;-3.754;2022-12-18T05:44:11;17.90;;;8.02;;
19782;SDS011;10051;40.294;-3.754;2022-12-18T05:46:37;18.55;;;8.10;;
19782;SDS011;10051;40.294;-3.754;2022-12-18T05:49:03;18.92;;;8.15;;
19782;SDS011;10051;40.294;-3.754;2022-12-18T05:51:28;19.23;;;8.07;;
19782;SDS011;10051;40.294;-3.754;2022-12-18T05:53:54;19.70;;;8.30;;
19782;SDS011;10051;40.294;-3.754;2022-12-18T05:56:21;22.55;;;9.10;;
19782;SDS011;10051;40.294;-3.754;2022-12-18T05:58:50;23.33;;;9.68;;
19782;SDS011;10051;40.294;-3.754;2022-12-18T06:01:25;24.25;;;10.27;;
19782;SDS011;10051;40.294;-3.754;2022-12-18T06:03:52;26.42;;;10.45;;
19782;SDS011;10051;40.294;-3.754;2022-12-18T06:06:18;33.42;;;10.82;;
19782;SDS011;10051;40.294;-3.754;2022-12-18T06:08:47;30.08;;;10.63;;
19782;SDS011;10051;40.294;-3.754;2022-12-18T06:11:15;32.05;;;11.55;;
19782;SDS011;10051;40.294;-3.754;2022-12-18T06:13:43;28.15;;;10.55;;
19782;SDS011;10051;40.294;-3.754;2022-12-18T06:16:09;25.58;;;10.32;;
19782;SDS011;10051;40.294;-3.754;2022-12-18T06:18:34;28.45;;;10.73;;
19782;SDS011;10051;40.294;-3.754;2022-12-18T06:21:00;25.83;;;10.35;;
19782;SDS011;10051;40.294;-3.754;2022-12-18T06:23:26;24.10;;;10.35;;
19782;SDS011;10051;40.294;-3.754;2022-12-18T06:25:52;25.38;;;10.23;;
19782;SDS011;10051;40.294;-3.754;2022-12-18T06:28:18;24.95;;;10.52;;
19782;SDS011;10051;40.294;-3.754;2022-12-18T06:30:44;23.55;;;10.60;;
19782;SDS011;10051;40.294;-3.754;2022-12-18T06:33:13;26.75;;;11.30;;
19782;SDS011;10051;40.294;-3.754;2022-12-18T06:35:40;22.05;;;10.10;;
19782;SDS011;10051;40.294;-3.754;2022-12-18T06:38:06;28.02;;;11.10;;
19782;SDS011;10051;40.294;-3.754;2022-12-18T06:40:32;25.05;;;11.07;;
19782;SDS011;10051;40.294;-3.754;2022-12-18T06:42:57;28.65;;;9.70;;
19782;SDS011;10051;40.294;-3.754;2022-12-18T06:45:23;24.67;;;11.77;;
19782;SDS011;10051;40.294;-3.754;2022-12-18T06:47:49;39.50;;;20.25;;
19782;SDS011;10051;40.294;-3.754;2022-12-18T06:50:15;32.80;;;14.73;;
19782;SDS011;10051;40.294;-3.754;2022-12-18T06:52:41;25.60;;;11.82;;
19782;SDS011;10051;40.294;-3.754;2022-12-18T06:55:09;25.95;;;12.95;;
19782;SDS011;10051;40.294;-3.754;2022-12-18T06:57:35;26.75;;;12.57;;
19782;SDS011;10051;40.294;-3.754;2022-12-18T07:00:03;25.75;;;11.85;;
19782;SDS011;10051;40.294;-3.754;2022-12-18T07:02:31;25.73;;;12.45;;
19782;SDS011;10051;40.294;-3.754;2022-12-18T07:04:57;27.67;;;11.90;;
19782;SDS011;10051;40.294;-3.754;2022-12-18T07:07:22;22.33;;;10.98;;
19782;SDS011;10051;40.294;-3.754;2022-12-18T07:09:51;27.95;;;12.68;;
19782;SDS011;10051;40.294;-3.754;2022-12-18T07:12:17;22.42;;;9.63;;
19782;SDS011;10051;40.294;-3.754;2022-12-18T07:14:43;21.00;;;9.48;;
19782;SDS011;10051;40.294;-3.754;2022-12-18T07:17:09;19.63;;;9.05;;
19782;SDS011;10051;40.294;-3.754;2022-12-18T07:19:34;18.75;;;8.23;;
19782;SDS011;10051;40.294;-3.754;2022-12-18T07:22:00;16.48;;;7.85;;
19782;SDS011;10051;40.294;-3.754;2022-12-18T07:24:26;19.58;;;9.85;;
19782;SDS011;10051;40.294;-3.754;2022-12-18T07:26:52;15.60;;;7.75;;
19782;SDS011;10051;40.294;-3.754;2022-12-18T07:29:17;17.50;;;9.40;;
19782;SDS011;10051;40.294;-3.754;2022-12-18T07:31:43;16.80;;;7.85;;
19782;SDS011;10051;40.294;-3.754;2022-12-18T07:34:10;16.50;;;9.45;;
19782;SDS011;10051;40.294;-3.754;2022-12-18T07:36:37;16.30;;;7.82;;
19782;SDS011;10051;40.294;-3.754;2022-12-18T07:39:02;17.15;;;8.35;;
19782;SDS011;10051;40.294;-3.754;2022-12-18T07:41:28;17.65;;;8.40;;
19782;SDS011;10051;40.294;-3.754;2022-12-18T07:43:54;19.60;;;8.80;;
19782;SDS011;10051;40.294;-3.754;2022-12-18T07:46:19;15.20;;;8.15;;
19782;SDS011;10051;40.294;-3.754;2022-12-18T07:48:45;17.95;;;8.48;;
19782;SDS011;10051;40.294;-3.754;2022-12-18T07:51:11;19.42;;;8.68;;
19782;SDS011;10051;40.294;-3.754;2022-12-18T07:53:37;19.52;;;9.00;;
19782;SDS011;10051;40.294;-3.754;2022-12-18T07:56:04;19.42;;;8.98;;
19782;SDS011;10051;40.294;-3.754;2022-12-18T07:58:34;23.42;;;10.15;;
19782;SDS011;10051;40.294;-3.754;2022-12-18T08:01:11;23.40;;;10.10;;
19782;SDS011;10051;40.294;-3.754;2022-12-18T08:03:40;20.58;;;9.30;;
19782;SDS011;10051;40.294;-3.754;2022-12-18T08:06:06;21.27;;;9.32;;
19782;SDS011;10051;40.294;-3.754;2022-12-18T08:08:34;19.20;;;9.02;;
19782;SDS011;10051;40.294;-3.754;2022-12-18T08:11:00;19.60;;;9.60;;
19782;SDS011;10051;40.294;-3.754;2022-12-18T08:13:26;21.55;;;9.32;;
19782;SDS011;10051;40.294;-3.754;2022-12-18T08:16:01;22.05;;;9.50;;
19782;SDS011;10051;40.294;-3.754;2022-12-18T08:18:28;18.15;;;8.90;;
19782;SDS011;10051;40.294;-3.754;2022-12-18T08:20:55;18.48;;;8.93;;
19782;SDS011;10051;40.294;-3.754;2022-12-18T08:23:21;20.83;;;9.05;;
19782;SDS011;10051;40.294;-3.754;2022-12-18T08:25:47;23.33;;;9.48;;
19782;SDS011;10051;40.294;-3.754;2022-12-18T08:28:12;26.25;;;12.18;;
19782;SDS011;10051;40.294;-3.754;2022-12-18T08:30:42;17.98;;;8.40;;
19782;SDS011;10051;40.294;-3.754;2022-12-18T08:33:08;19.42;;;8.40;;
19782;SDS011;10051;40.294;-3.754;2022-12-18T08:35:34;18.20;;;8.68;;
19782;SDS011;10051;40.294;-3.754;2022-12-18T08:38:01;18.75;;;8.38;;
19782;SDS011;10051;40.294;-3.754;2022-12-18T08:40:27;18.67;;;9.05;;
19782;SDS011;10051;40.294;-3.754;2022-12-18T08:42:53;18.45;;;8.57;;
19782;SDS011;10051;40.294;-3.754;2022-12-18T08:45:37;18.58;;;8.80;;
19782;SDS011;10051;40.294;-3.754;2022-12-18T08:48:03;17.23;;;8.25;;
19782;SDS011;10051;40.294;-3.754;2022-12-18T08:50:29;20.30;;;8.75;;
19782;SDS011;10051;40.294;-3.754;2022-12-18T08:52:54;28.92;;;12.45;;
19782;SDS011;10051;40.294;-3.754;2022-12-18T08:55:20;33.53;;;15.10;;
19782;SDS011;10051;40.294;-3.754;2022-12-18T08:57:47;20.33;;;9.98;;
19782;SDS011;10051;40.294;-3.754;2022-12-18T09:00:14;20.73;;;9.70;;
19782;SDS011;10051;40.294;-3.754;2022-12-18T09:02:40;18.52;;;9.10;;
19782;SDS011;10051;40.294;-3.754;2022-12-18T09:05:06;20.27;;;9.63;;
19782;SDS011;10051;40.294;-3.754;2022-12-18T09:07:35;24.42;;;12.52;;
19782;SDS011;10051;40.294;-3.754;2022-12-18T09:10:03;19.65;;;10.05;;
19782;SDS011;10051;40.294;-3.754;2022-12-18T09:12:29;18.13;;;9.15;;
19782;SDS011;10051;40.294;-3.754;2022-12-18T09:14:55;17.55;;;8.45;;
19782;SDS011;10051;40.294;-3.754;2022-12-18T09:17:21;15.65;;;7.38;;
19782;SDS011;10051;40.294;-3.754;2022-12-18T09:19:47;14.35;;;7.45;;
19782;SDS011;10051;40.294;-3.754;2022-12-18T09:22:13;15.13;;;7.97;;
19782;SDS011;10051;40.294;-3.754;2022-12-18T09:24:40;19.25;;;8.82;;
19782;SDS011;10051;40.294;-3.754;2022-12-18T09:27:06;14.93;;;7.32;;
19782;SDS011;10051;40.294;-3.754;2022-12-18T09:29:32;21.85;;;9.75;;
19782;SDS011;10051;40.294;-3.754;2022-12-18T09:31:57;19.15;;;9.02;;
19782;SDS011;10051;40.294;-3.754;2022-12-18T09:34:23;21.65;;;10.10;;
19782;SDS011;10051;40.294;-3.754;2022-12-18T09:36:49;21.83;;;10.02;;
19782;SDS011;10051;40.294;-3.754;2022-12-18T09:39:15;20.80;;;10.13;;
19782;SDS011;10051;40.294;-3.754;2022-12-18T09:41:42;21.35;;;10.07;;
19782;SDS011;10051;40.294;-3.754;2022-12-18T09:49:41;23.15;;;10.55;;
19782;SDS011;10051;40.294;-3.754;2022-12-18T09:52:19;23.50;;;11.15;;
19782;SDS011;10051;40.294;-3.754;2022-12-18T09:55:05;26.35;;;12.30;;
19782;SDS011;10051;40.294;-3.754;2022-12-18T09:57:49;25.00;;;10.45;;
19782;SDS011;10051;40.294;-3.754;2022-12-18T10:00:21;25.35;;;10.70;;
19782;SDS011;10051;40.294;-3.754;2022-12-18T10:02:49;23.33;;;10.00;;
19782;SDS011;10051;40.294;-3.754;2022-12-18T10:11:11;23.95;;;10.88;;
19782;SDS011;10051;40.294;-3.754;2022-12-18T10:16:35;20.63;;;9.75;;
19782;SDS011;10051;40.294;-3.754;2022-12-18T10:24:43;21.80;;;9.63;;
19782;SDS011;10051;40.294;-3.754;2022-12-18T10:27:18;19.98;;;9.43;;
19782;SDS011;10051;40.294;-3.754;2022-12-18T10:29:48;23.40;;;10.25;;
19782;SDS011;10051;40.294;-3.754;2022-12-18T10:32:15;22.83;;;10.32;;
19782;SDS011;10051;40.294;-3.754;2022-12-18T10:34:53;20.05;;;9.13;;
19782;SDS011;10051;40.294;-3.754;2022-12-18T10:37:22;18.95;;;8.77;;
19782;SDS011;10051;40.294;-3.754;2022-12-18T10:40:13;18.90;;;9.13;;
19782;SDS011;10051;40.294;-3.754;2022-12-18T10:42:41;19.75;;;8.70;;
19782;SDS011;10051;40.294;-3.754;2022-12-18T10:45:15;19.80;;;9.25;;
19782;SDS011;10051;40.294;-3.754;2022-12-18T10:47:46;20.42;;;10.15;;
19782;SDS011;10051;40.294;-3.754;2022-12-18T10:52:57;14.90;;;7.03;;
19782;SDS011;10051;40.294;-3.754;2022-12-18T10:55:32;14.88;;;7.60;;
19782;SDS011;10051;40.294;-3.754;2022-12-18T10:58:13;15.32;;;7.82;;
19782;SDS011;10051;40.294;-3.754;2022-12-18T11:00:50;13.85;;;6.63;;
19782;SDS011;10051;40.294;-3.754;2022-12-18T11:03:38;14.85;;;7.18;;
19782;SDS011;10051;40.294;-3.754;2022-12-18T11:08:33;13.00;;;6.60;;
19782;SDS011;10051;40.294;-3.754;2022-12-18T11:10:59;13.27;;;7.55;;
19782;SDS011;10051;40.294;-3.754;2022-12-18T11:13:26;15.95;;;8.02;;
19782;SDS011;10051;40.294;-3.754;2022-12-18T11:15:56;17.67;;;8.27;;
19782;SDS011;10051;40.294;-3.754;2022-12-18T11:23:35;15.45;;;7.35;;
19782;SDS011;10051;40.294;-3.754;2022-12-18T11:26:15;29.23;;;12.75;;
19782;SDS011;10051;40.294;-3.754;2022-12-18T11:28:42;24.17;;;9.98;;
19782;SDS011;10051;40.294;-3.754;2022-12-18T11:31:27;22.42;;;9.43;;
19782;SDS011;10051;40.294;-3.754;2022-12-18T11:34:00;16.95;;;9.57;;
19782;SDS011;10051;40.294;-3.754;2022-12-18T11:36:48;16.63;;;8.20;;
19782;SDS011;10051;40.294;-3.754;2022-12-18T11:39:18;12.80;;;6.55;;
19782;SDS011;10051;40.294;-3.754;2022-12-18T11:41:52;12.73;;;6.63;;
19782;SDS011;10051;40.294;-3.754;2022-12-18T11:44:44;10.75;;;6.47;;
19782;SDS011;10051;40.294;-3.754;2022-12-18T11:47:18;10.25;;;5.85;;
19782;SDS011;10051;40.294;-3.754;2022-12-18T11:50:05;11.55;;;6.25;;
19782;SDS011;10051;40.294;-3.754;2022-12-18T11:52:39;11.70;;;6.18;;
19782;SDS011;10051;40.294;-3.754;2022-12-18T11:55:13;9.95;;;5.88;;
19782;SDS011;10051;40.294;-3.754;2022-12-18T12:00:21;9.68;;;5.22;;
19782;SDS011;10051;40.294;-3.754;2022-12-18T12:20:15;10.55;;;5.65;;
19782;SDS011;10051;40.294;-3.754;2022-12-18T12:39:23;8.07;;;5.05;;
19782;SDS011;10051;40.294;-3.754;2022-12-18T12:41:59;8.23;;;4.25;;
19782;SDS011;10051;40.294;-3.754;2022-12-18T12:44:45;7.95;;;4.95;;
19782;SDS011;10051;40.294;-3.754;2022-12-18T12:47:14;6.82;;;4.22;;
19782;SDS011;10051;40.294;-3.754;2022-12-18T12:49:44;6.25;;;4.05;;
19782;SDS011;10051;40.294;-3.754;2022-12-18T12:52:30;11.40;;;8.00;;
19782;SDS011;10051;40.294;-3.754;2022-12-18T12:55:02;8.90;;;5.20;;
19782;SDS011;10051;40.294;-3.754;2022-12-18T12:57:31;7.82;;;4.70;;
19782;SDS011;10051;40.294;-3.754;2022-12-18T13:02:45;7.50;;;4.00;;
19782;SDS011;10051;40.294;-3.754;2022-12-18T13:08:30;6.47;;;4.15;;
19782;SDS011;10051;40.294;-3.754;2022-12-18T13:10:57;8.07;;;4.15;;
19782;SDS011;10051;40.294;-3.754;2022-12-18T13:16:24;8.45;;;5.47;;
19782;SDS011;10051;40.294;-3.754;2022-12-18T13:18:55;7.05;;;4.63;;
19782;SDS011;10051;40.294;-3.754;2022-12-18T13:21:28;5.65;;;3.90;;
19782;SDS011;10051;40.294;-3.754;2022-12-18T13:24:20;7.95;;;3.80;;
19782;SDS011;10051;40.294;-3.754;2022-12-18T13:26:50;7.53;;;4.88;;
19782;SDS011;10051;40.294;-3.754;2022-12-18T13:32:44;7.53;;;4.80;;
19782;SDS011;10051;40.294;-3.754;2022-12-18T13:37:44;5.28;;;3.63;;
19782;SDS011;10051;40.294;-3.754;2022-12-18T13:45:59;5.72;;;3.80;;
19782;SDS011;10051;40.294;-3.754;2022-12-18T13:48:27;5.63;;;3.42;;
19782;SDS011;10051;40.294;-3.754;2022-12-18T13:50:59;5.78;;;3.75;;
19782;SDS011;10051;40.294;-3.754;2022-12-18T13:53:33;4.28;;;3.17;;
19782;SDS011;10051;40.294;-3.754;2022-12-18T13:56:03;5.90;;;3.33;;
19782;SDS011;10051;40.294;-3.754;2022-12-18T13:58:32;5.85;;;3.28;;
19782;SDS011;10051;40.294;-3.754;2022-12-18T14:00:58;4.13;;;3.10;;
19782;SDS011;10051;40.294;-3.754;2022-12-18T14:03:25;4.07;;;2.97;;
19782;SDS011;10051;40.294;-3.754;2022-12-18T14:05:53;5.00;;;3.05;;
19782;SDS011;10051;40.294;-3.754;2022-12-18T14:08:25;8.02;;;3.20;;
19782;SDS011;10051;40.294;-3.754;2022-12-18T14:10:57;4.80;;;2.92;;
19782;SDS011;10051;40.294;-3.754;2022-12-18T14:13:27;6.32;;;3.38;;
19782;SDS011;10051;40.294;-3.754;2022-12-18T14:16:00;4.30;;;2.80;;
19782;SDS011;10051;40.294;-3.754;2022-12-18T14:21:26;4.45;;;2.80;;
19782;SDS011;10051;40.294;-3.754;2022-12-18T14:26:53;3.65;;;2.47;;
19782;SDS011;10051;40.294;-3.754;2022-12-18T14:31:46;6.15;;;3.30;;
19782;SDS011;10051;40.294;-3.754;2022-12-18T14:34:30;5.85;;;2.50;;
19782;SDS011;10051;40.294;-3.754;2022-12-18T14:36:56;6.47;;;4.10;;
19782;SDS011;10051;40.294;-3.754;2022-12-18T14:39:21;10.18;;;2.97;;
19782;SDS011;10051;40.294;-3.754;2022-12-18T14:41:49;6.75;;;3.50;;
19782;SDS011;10051;40.294;-3.754;2022-12-18T14:44:15;6.90;;;2.80;;
19782;SDS011;10051;40.294;-3.754;2022-12-18T14:46:46;6.25;;;3.45;;
19782;SDS011;10051;40.294;-3.754;2022-12-18T14:51:49;6.10;;;3.72;;
19782;SDS011;10051;40.294;-3.754;2022-12-18T14:54:18;5.53;;;3.13;;
19782;SDS011;10051;40.294;-3.754;2022-12-18T14:56:52;4.10;;;2.90;;
19782;SDS011;10051;40.294;-3.754;2022-12-18T14:59:29;6.68;;;3.60;;
19782;SDS011;10051;40.294;-3.754;2022-12-18T15:04:38;5.60;;;3.17;;
19782;SDS011;10051;40.294;-3.754;2022-12-18T15:12:37;4.45;;;2.95;;
19782;SDS011;10051;40.294;-3.754;2022-12-18T15:18:14;4.00;;;2.45;;
19782;SDS011;10051;40.294;-3.754;2022-12-18T15:20:46;4.47;;;2.55;;
19782;SDS011;10051;40.294;-3.754;2022-12-18T15:23:16;3.58;;;2.22;;
19782;SDS011;10051;40.294;-3.754;2022-12-18T15:25:44;4.13;;;1.95;;
19782;SDS011;10051;40.294;-3.754;2022-12-18T15:28:32;3.00;;;1.75;;
19782;SDS011;10051;40.294;-3.754;2022-12-18T15:31:45;3.00;;;1.70;;
19782;SDS011;10051;40.294;-3.754;2022-12-18T15:36:21;6.28;;;2.83;;
19782;SDS011;10051;40.294;-3.754;2022-12-18T15:38:51;4.53;;;3.00;;
19782;SDS011;10051;40.294;-3.754;2022-12-18T15:41:19;4.65;;;3.00;;
19782;SDS011;10051;40.294;-3.754;2022-12-18T15:43:50;7.10;;;3.28;;
19782;SDS011;10051;40.294;-3.754;2022-12-18T15:46:21;6.63;;;3.30;;
19782;SDS011;10051;40.294;-3.754;2022-12-18T15:48:52;7.95;;;4.13;;
19782;SDS011;10051;40.294;-3.754;2022-12-18T15:51:20;5.70;;;3.60;;
19782;SDS011;10051;40.294;-3.754;2022-12-18T15:53:48;5.03;;;3.08;;
19782;SDS011;10051;40.294;-3.754;2022-12-18T15:56:17;5.63;;;3.30;;
19782;SDS011;10051;40.294;-3.754;2022-12-18T15:59:02;4.32;;;2.90;;
19782;SDS011;10051;40.294;-3.754;2022-12-18T16:01:54;5.78;;;3.15;;
19782;SDS011;10051;40.294;-3.754;2022-12-18T16:04:20;9.05;;;4.10;;
19782;SDS011;10051;40.294;-3.754;2022-12-18T16:06:48;6.63;;;3.55;;
19782;SDS011;10051;40.294;-3.754;2022-12-18T16:09:16;6.03;;;3.30;;
19782;SDS011;10051;40.294;-3.754;2022-12-18T16:11:42;7.97;;;3.53;;
19782;SDS011;10051;40.294;-3.754;2022-12-18T16:14:17;7.13;;;3.80;;
19782;SDS011;10051;40.294;-3.754;2022-12-18T16:16:46;4.65;;;3.00;;
19782;SDS011;10051;40.294;-3.754;2022-12-18T16:19:13;4.93;;;3.00;;
19782;SDS011;10051;40.294;-3.754;2022-12-18T16:21:39;4.18;;;2.50;;
19782;SDS011;10051;40.294;-3.754;2022-12-18T16:24:05;3.78;;;2.40;;
19782;SDS011;10051;40.294;-3.754;2022-12-18T16:26:37;3.65;;;2.55;;
19782;SDS011;10051;40.294;-3.754;2022-12-18T16:29:03;4.13;;;2.55;;
19782;SDS011;10051;40.294;-3.754;2022-12-18T16:31:28;4.07;;;2.78;;
19782;SDS011;10051;40.294;-3.754;2022-12-18T16:37:14;6.53;;;2.80;;
19782;SDS011;10051;40.294;-3.754;2022-12-18T16:39:41;7.88;;;5.20;;
19782;SDS011;10051;40.294;-3.754;2022-12-18T16:42:10;7.32;;;5.00;;
19782;SDS011;10051;40.294;-3.754;2022-12-18T16:44:39;9.43;;;5.13;;
19782;SDS011;10051;40.294;-3.754;2022-12-18T16:47:08;8.18;;;5.35;;
19782;SDS011;10051;40.294;-3.754;2022-12-18T16:49:34;7.65;;;5.03;;
19782;SDS011;10051;40.294;-3.754;2022-12-18T16:52:03;7.70;;;4.85;;
19782;SDS011;10051;40.294;-3.754;2022-12-18T16:54:29;7.47;;;4.68;;